Search for airport 
image banner adimage banner adimage banner ad
image banner ad

KMMH - Mammoth Yosemite

Located in Mammoth Lakes, United States

ICAO - MMH, IATA - MMH

Data provided by Airmate  

General information

Coordinates: N37°37'27" W118°50'20"
Elevation is 7135 feet MSL.
Magnetic variation is 15° East
View others Airports in California

Operational data

Special qualification required
Current time UTC:
Current local time:
Weather
METAR: KMMH 141121Z AUTO 00000KT 10SM CLR 04/M02 A3022 RMK AO2
TAF: KMMH 141120Z 1412/1512 30006KT P6SM FEW250 FM141600 14010KT P6SM SKC FM142100 25022G35KT P6SM SCT200 FM150400 23012G20KT P6SM SKC
View NOTAMs / SUP AIP / TFR affecting this airport [VIEW]
Communications frequencies: [VIEW]

Runways:

RWY identifierQFULength (ft)Width (ft)SurfaceLDA (ft)
09109°7000100ASPH7000
27289°7000100ASPH7000

Airport contact information

Address: Mammoth Lakes United States

Satellite view of KMMH